MSC Ines — 3EFZ3 — position and weather

sailwx.info

Track history (hours):
 
Tides and Currents Weather Stations Pressure Air Temp Water Temp Dewpoint Dewpoint Depression Visibility Wind Speed Wind Dir Waves Ship Positions

MSC Ines

Last reported at 2017-May-29 13:09 UTC. Time now 2017-May-30 03:27 UTC.
Position N 23°53' E 118°20'.

Length 349 m; draft 11.8 m.

Type: Cargo ship. MMSI: 356112000.

Date/timePositionNaut miles runAvg speedWind from/ knotsBaromVisibWave heightAir tempDewpointWater temp
2017-May-29 13:09N 23°53' E 118°20'317.4
2017-May-29 13:00N 23°55' E 118°23'37418.3
2017-May-28 16:32N 29°00' E 122°23'017.5
2017-May-28 16:31N 29°01' E 122°23'1018.7
2017-May-28 15:59N 29°11' E 122°25'4112.3
2017-May-28 12:38N 29°50' E 122°13'2 0.1
2017-May-27 23:01N 29°52' E 122°12'33 2.2
2017-May-27 07:58N 29°45' E 122°49'0 0.7
2017-May-27 07:26N 29°45' E 122°49'0 1.1
2017-May-27 07:00N 29°45' E 122°49'0 0.8
2017-May-27 06:29N 29°45' E 122°48'0 0.7
2017-May-27 06:00N 29°46' E 122°48'1 1.1
2017-May-27 05:30N 29°46' E 122°48'510.5
2017-May-27 04:59N 29°51' E 122°51'711.0
2017-May-27 04:22N 29°58' E 122°50'714.0
2017-May-27 03:54N 30°04' E 122°48'613.2
2017-May-27 03:29N 30°10' E 122°49'715.2
2017-May-27 03:00N 30°17' E 122°47'915.7
2017-May-27 02:28N 30°25' E 122°43'1014.4
2017-May-27 01:46N 30°30' E 122°33'812.1
2017-May-27 01:06N 30°32' E 122°24'1 6.7
2017-May-27 00:57N 30°32' E 122°23'915.0
2017-May-27 00:23N 30°33' E 122°13'9 2.4
2017-May-26 20:45N 30°37' E 122°04'0 0.0
2017-May-26 20:29N 30°37' E 122°04'0 0.1
2017-May-26 19:42N 30°37' E 122°04'0 0.0
2017-May-26 15:13N 30°37' E 122°04'0 0.0
2017-May-26 14:44N 30°37' E 122°04'0 0.0
2017-May-26 14:25N 30°37' E 122°04'0 0.0
2017-May-26 12:55N 30°37' E 122°04'0 0.0
2017-May-26 12:16N 30°37' E 122°04'0 0.1
2017-May-26 11:59N 30°37' E 122°04'0 0.0
2017-May-26 11:25N 30°37' E 122°04'0 0.0
2017-May-26 10:40N 30°37' E 122°04'0 1.1
2017-May-26 10:30N 30°37' E 122°03'4 5.5
2017-May-26 09:47N 30°35' E 122°07'414.8
2017-May-26 09:31N 30°34' E 122°12'5 9.3
2017-May-26 08:59N 30°33' E 122°17'5 5.9
2017-May-26 08:05N 30°32' E 122°23'1 7.2
2017-May-26 07:55N 30°32' E 122°25'3 7.4
2017-May-26 07:30N 30°32' E 122°28'5 9.9
2017-May-26 06:59N 30°30' E 122°34'4 7.5
2017-May-26 06:30N 30°29' E 122°38'4 6.7
2017-May-26 05:58N 30°27' E 122°41'1 2.2
2017-May-26 05:30N 30°26' E 122°41'1 0.1
2017-May-25 21:10N 30°25' E 122°42'0 0.3
2017-May-25 20:43N 30°25' E 122°42'0 0.7
2017-May-25 20:01N 30°26' E 122°41'1 0.1
2017-May-25 02:04N 30°26' E 122°40'1 7.6
2017-May-25 01:55N 30°27' E 122°41'5 9.9
2017-May-25 01:23N 30°31' E 122°45'512.5
2017-May-25 01:00N 30°32' E 122°50'611.2
2017-May-25 00:26N 30°33' E 122°58'  
2017-May-22 08:59N 38°11' E 121°54'4 8.4
2017-May-22 08:30N 38°12' E 121°49'4 8.6
2017-May-22 08:00N 38°13' E 121°44'4 8.3
2017-May-22 07:30N 38°16' E 121°39'4 8.8
2017-May-22 07:01N 38°18' E 121°35'4 8.9
2017-May-22 06:30N 38°20' E 121°29'5 8.8
2017-May-22 05:58N 38°21' E 121°24'4 8.9
2017-May-22 05:29N 38°23' E 121°19'4 9.1
2017-May-22 05:00N 38°26' E 121°14'5 9.2
2017-May-22 04:31N 38°27' E 121°09'5 9.1
2017-May-22 04:00N 38°29' E 121°03'2211.6
2017-May-22 02:05N 38°34' E 120°35'516.7
2017-May-22 01:48N 38°34' E 120°29'816.8
2017-May-22 01:18N 38°36' E 120°19'1317.0
2017-May-22 00:32N 38°39' E 120°03'318.2
2017-May-22 00:24N 38°39' E 119°59'105 4.3
2017-May-21 00:09N 38°60' E 117°47'0 0.0
2017-May-20 23:57N 38°60' E 117°47'0 0.0
2017-May-20 12:30N 38°60' E 117°47'19 1.7
2017-May-20 01:18N 38°54' E 118°10'3 8.8
2017-May-20 01:00N 38°53' E 118°13'6 9.5
2017-May-20 00:23N 38°51' E 118°20'512.3
2017-May-20 00:00N 38°51' E 118°26'612.6
2017-May-19 23:30N 38°50' E 118°34'712.8
2017-May-19 22:59N 38°49' E 118°42'613.1
2017-May-19 22:30N 38°49' E 118°50'1613.3
2017-May-19 21:17N 38°48' E 119°11'413.2
2017-May-19 21:00N 38°47' E 119°16'612.9
2017-May-19 20:31N 38°47' E 119°24'612.7
2017-May-19 20:00N 38°46' E 119°32'912.7
2017-May-19 19:20N 38°45' E 119°43'612.7
2017-May-19 18:52N 38°44' E 119°50'512.5
2017-May-19 18:30N 38°44' E 119°56'712.5
2017-May-19 17:59N 38°43' E 120°04'712.6
2017-May-19 17:27N 38°42' E 120°13'612.8
2017-May-19 17:00N 38°42' E 120°20'3511.1
2017-May-19 13:52N 38°34' E 121°04'514.1
2017-May-19 13:31N 38°31' E 121°09'  
Track history (hours):
 
Tides and Currents Weather Stations Pressure Air Temp Water Temp Dewpoint Dewpoint Depression Visibility Wind Speed Wind Dir Waves Ship Positions

MSC Ines

Last reported at 2017-May-29 13:09 UTC. Time now 2017-May-30 03:27 UTC.
Position N 23°53' E 118°20'.

Length 349 m; draft 11.8 m.

Type: Cargo ship. MMSI: 356112000.

Date/timePositionNaut miles runAvg speedWind from/ knotsBaromVisibWave heightAir tempDewpointWater temp
2017-May-29 13:09N 23°53' E 118°20'317.4
2017-May-29 13:00N 23°55' E 118°23'37418.3
2017-May-28 16:32N 29°00' E 122°23'017.5
2017-May-28 16:31N 29°01' E 122°23'1018.7
2017-May-28 15:59N 29°11' E 122°25'4112.3
2017-May-28 12:38N 29°50' E 122°13'2 0.1
2017-May-27 23:01N 29°52' E 122°12'33 2.2
2017-May-27 07:58N 29°45' E 122°49'0 0.7
2017-May-27 07:26N 29°45' E 122°49'0 1.1
2017-May-27 07:00N 29°45' E 122°49'0 0.8
2017-May-27 06:29N 29°45' E 122°48'0 0.7
2017-May-27 06:00N 29°46' E 122°48'1 1.1
2017-May-27 05:30N 29°46' E 122°48'510.5
2017-May-27 04:59N 29°51' E 122°51'711.0
2017-May-27 04:22N 29°58' E 122°50'714.0
2017-May-27 03:54N 30°04' E 122°48'613.2
2017-May-27 03:29N 30°10' E 122°49'715.2
2017-May-27 03:00N 30°17' E 122°47'915.7
2017-May-27 02:28N 30°25' E 122°43'1014.4
2017-May-27 01:46N 30°30' E 122°33'812.1
2017-May-27 01:06N 30°32' E 122°24'1 6.7
2017-May-27 00:57N 30°32' E 122°23'915.0
2017-May-27 00:23N 30°33' E 122°13'9 2.4
2017-May-26 20:45N 30°37' E 122°04'0 0.0
2017-May-26 20:29N 30°37' E 122°04'0 0.1
2017-May-26 19:42N 30°37' E 122°04'0 0.0
2017-May-26 15:13N 30°37' E 122°04'0 0.0
2017-May-26 14:44N 30°37' E 122°04'0 0.0
2017-May-26 14:25N 30°37' E 122°04'0 0.0
2017-May-26 12:55N 30°37' E 122°04'0 0.0
2017-May-26 12:16N 30°37' E 122°04'0 0.1
2017-May-26 11:59N 30°37' E 122°04'0 0.0
2017-May-26 11:25N 30°37' E 122°04'0 0.0
2017-May-26 10:40N 30°37' E 122°04'0 1.1
2017-May-26 10:30N 30°37' E 122°03'4 5.5
2017-May-26 09:47N 30°35' E 122°07'414.8
2017-May-26 09:31N 30°34' E 122°12'5 9.3
2017-May-26 08:59N 30°33' E 122°17'5 5.9
2017-May-26 08:05N 30°32' E 122°23'1 7.2
2017-May-26 07:55N 30°32' E 122°25'3 7.4
2017-May-26 07:30N 30°32' E 122°28'5 9.9
2017-May-26 06:59N 30°30' E 122°34'4 7.5
2017-May-26 06:30N 30°29' E 122°38'4 6.7
2017-May-26 05:58N 30°27' E 122°41'1 2.2
2017-May-26 05:30N 30°26' E 122°41'1 0.1
2017-May-25 21:10N 30°25' E 122°42'0 0.3
2017-May-25 20:43N 30°25' E 122°42'0 0.7
2017-May-25 20:01N 30°26' E 122°41'1 0.1
2017-May-25 02:04N 30°26' E 122°40'1 7.6
2017-May-25 01:55N 30°27' E 122°41'5 9.9
2017-May-25 01:23N 30°31' E 122°45'512.5
2017-May-25 01:00N 30°32' E 122°50'611.2
2017-May-25 00:26N 30°33' E 122°58'  
2017-May-22 08:59N 38°11' E 121°54'4 8.4
2017-May-22 08:30N 38°12' E 121°49'4 8.6
2017-May-22 08:00N 38°13' E 121°44'4 8.3
2017-May-22 07:30N 38°16' E 121°39'4 8.8
2017-May-22 07:01N 38°18' E 121°35'4 8.9
2017-May-22 06:30N 38°20' E 121°29'5 8.8
2017-May-22 05:58N 38°21' E 121°24'4 8.9
2017-May-22 05:29N 38°23' E 121°19'4 9.1
2017-May-22 05:00N 38°26' E 121°14'5 9.2
2017-May-22 04:31N 38°27' E 121°09'5 9.1
2017-May-22 04:00N 38°29' E 121°03'2211.6
2017-May-22 02:05N 38°34' E 120°35'516.7
2017-May-22 01:48N 38°34' E 120°29'816.8
2017-May-22 01:18N 38°36' E 120°19'1317.0
2017-May-22 00:32N 38°39' E 120°03'318.2
2017-May-22 00:24N 38°39' E 119°59'105 4.3
2017-May-21 00:09N 38°60' E 117°47'0 0.0
2017-May-20 23:57N 38°60' E 117°47'0 0.0
2017-May-20 12:30N 38°60' E 117°47'19 1.7
2017-May-20 01:18N 38°54' E 118°10'3 8.8
2017-May-20 01:00N 38°53' E 118°13'6 9.5
2017-May-20 00:23N 38°51' E 118°20'512.3
2017-May-20 00:00N 38°51' E 118°26'612.6
2017-May-19 23:30N 38°50' E 118°34'712.8
2017-May-19 22:59N 38°49' E 118°42'613.1
2017-May-19 22:30N 38°49' E 118°50'1613.3
2017-May-19 21:17N 38°48' E 119°11'413.2
2017-May-19 21:00N 38°47' E 119°16'612.9
2017-May-19 20:31N 38°47' E 119°24'612.7
2017-May-19 20:00N 38°46' E 119°32'912.7
2017-May-19 19:20N 38°45' E 119°43'612.7
2017-May-19 18:52N 38°44' E 119°50'512.5
2017-May-19 18:30N 38°44' E 119°56'712.5
2017-May-19 17:59N 38°43' E 120°04'712.6
2017-May-19 17:27N 38°42' E 120°13'612.8
2017-May-19 17:00N 38°42' E 120°20'3511.1
2017-May-19 13:52N 38°34' E 121°04'514.1
2017-May-19 13:31N 38°31' E 121°09'  

Dump ship's entire track history